createdAt,value
2022-09-21T00:01:19.015Z,100451.19
2022-09-21T00:03:49.485Z,100448.03
2022-09-21T00:06:20.136Z,100443.13
2022-09-21T00:08:49.020Z,100444.84
2022-09-21T00:11:19.680Z,100446.59
2022-09-21T00:13:48.600Z,100451.19
2022-09-21T00:16:17.657Z,100448.03
2022-09-21T00:18:45.849Z,100444.41
2022-09-21T00:21:17.220Z,100446.31
2022-09-21T00:23:46.330Z,100449.00
2022-09-21T00:26:16.977Z,100447.75
2022-09-21T00:28:45.650Z,100454.59
2022-09-21T00:31:18.312Z,100443.97
2022-09-21T00:33:46.467Z,100444.47
2022-09-21T00:36:18.368Z,100450.00
2022-09-21T00:38:50.627Z,100444.94
2022-09-21T00:41:19.671Z,100436.88
2022-09-21T00:43:49.899Z,100445.44
2022-09-21T00:46:27.810Z,100440.38
2022-09-21T00:48:56.458Z,100445.56
2022-09-21T00:51:27.384Z,100446.06
2022-09-21T00:54:01.766Z,100446.84
2022-09-21T00:56:31.227Z,100444.16
2022-09-21T00:58:59.788Z,100454.28
2022-09-21T01:01:28.039Z,100440.38
2022-09-21T01:03:57.408Z,100446.84
2022-09-21T01:06:28.366Z,100449.84
2022-09-21T01:08:59.234Z,100440.53
2022-09-21T01:11:36.204Z,100447.16
2022-09-21T01:14:16.969Z,100444.97
2022-09-21T01:16:52.140Z,100443.53
2022-09-21T01:19:39.245Z,100438.63
2022-09-21T01:22:18.431Z,100436.72
2022-09-21T01:25:05.467Z,100433.41
2022-09-21T01:27:55.326Z,100434.03
2022-09-21T01:30:25.372Z,100438.31
2022-09-21T01:32:59.408Z,100424.38
2022-09-21T01:35:31.892Z,100419.16
2022-09-21T01:38:02.897Z,100427.53
2022-09-21T01:40:35.854Z,100424.84
2022-09-21T01:43:07.405Z,100424.69
2022-09-21T01:45:40.376Z,100426.72
2022-09-21T01:48:09.520Z,100415.34
2022-09-21T01:50:42.888Z,100412.16
2022-09-21T01:53:17.004Z,100415.78
2022-09-21T01:55:50.031Z,100415.16
2022-09-21T01:58:25.913Z,100419.31
2022-09-21T02:00:58.176Z,100417.56
2022-09-21T02:03:32.294Z,100411.75
2022-09-21T02:06:02.198Z,100402.72
2022-09-21T02:08:32.728Z,100405.41
2022-09-21T02:11:03.497Z,100407.00
2022-09-21T02:13:35.611Z,100411.75
2022-09-21T02:16:26.693Z,100404.97
2022-09-21T02:19:02.740Z,100411.28
2022-09-21T02:21:34.424Z,100417.91
2022-09-21T02:24:09.289Z,100422.19
2022-09-21T02:26:45.272Z,100416.84
2022-09-21T02:29:20.015Z,100428.03
2022-09-21T02:31:55.049Z,100414.47
2022-09-21T02:34:32.305Z,100418.53
2022-09-21T02:37:09.157Z,100413.94
2022-09-21T02:39:43.762Z,100420.44
2022-09-21T02:42:15.659Z,100418.38
2022-09-21T02:44:49.137Z,100415.69
2022-09-21T02:47:23.978Z,100419.94
2022-09-21T02:49:56.154Z,100411.88
2022-09-21T02:52:27.551Z,100419.47
2022-09-21T02:54:57.303Z,100416.94
2022-09-21T02:57:27.804Z,100412.34
2022-09-21T02:59:55.939Z,100415.03
2022-09-21T03:02:25.676Z,100409.66
2022-09-21T03:04:54.211Z,100410.44
2022-09-21T03:07:22.325Z,100416.94
2022-09-21T03:09:50.441Z,100415.66
2022-09-21T03:12:18.626Z,100406.81
2022-09-21T03:14:46.729Z,100415.50
2022-09-21T03:17:14.882Z,100413.13
2022-09-21T03:19:44.416Z,100418.50
2022-09-21T03:22:12.601Z,100404.56
2022-09-21T03:24:46.973Z,100417.88
2022-09-21T03:27:15.549Z,100408.69
2022-09-21T03:29:43.899Z,100420.56
2022-09-21T03:32:12.379Z,100415.66
2022-09-21T03:34:40.524Z,100419.91
2022-09-21T03:37:12.426Z,100413.91
2022-09-21T03:39:40.594Z,100424.66
2022-09-21T03:42:10.134Z,100422.75
2022-09-21T03:44:38.694Z,100411.19
2022-09-21T03:47:07.778Z,100422.44
2022-09-21T03:49:36.095Z,100422.75
2022-09-21T03:52:05.233Z,100417.38
2022-09-21T03:54:34.894Z,100423.66
2022-09-21T03:57:03.097Z,100432.53
2022-09-21T03:59:31.193Z,100428.56
2022-09-21T04:01:59.308Z,100421.94
2022-09-21T04:04:27.403Z,100430.94
2022-09-21T04:06:55.646Z,100427.94
2022-09-21T04:09:23.722Z,100431.91
2022-09-21T04:11:53.969Z,100433.16
2022-09-21T04:14:23.342Z,100434.75
2022-09-21T04:16:52.166Z,100432.88
2022-09-21T04:19:22.371Z,100436.16
2022-09-21T04:21:51.473Z,100435.88
2022-09-21T04:24:19.945Z,100438.59
2022-09-21T04:26:48.060Z,100425.63
2022-09-21T04:29:17.856Z,100425.78
2022-09-21T04:31:45.987Z,100425.81
2022-09-21T04:34:14.949Z,100428.69
2022-09-21T04:36:43.711Z,100432.94
2022-09-21T04:39:11.884Z,100425.50
2022-09-21T04:41:40.025Z,100436.59
2022-09-21T04:44:08.199Z,100437.34
2022-09-21T04:46:38.521Z,100443.69
2022-09-21T04:49:06.727Z,100435.94
2022-09-21T04:51:34.827Z,100441.78
2022-09-21T04:54:03.003Z,100443.19
2022-09-21T04:56:31.680Z,100439.59
2022-09-21T04:59:00.011Z,100446.38
2022-09-21T05:01:28.157Z,100445.53
2022-09-21T05:04:01.848Z,100444.19
2022-09-21T05:06:30.223Z,100444.97
2022-09-21T05:09:15.940Z,100445.78
2022-09-21T05:11:44.425Z,100444.47
2022-09-21T05:14:12.909Z,100435.63
2022-09-21T05:16:41.100Z,100440.63
2022-09-21T05:19:10.655Z,100440.94
2022-09-21T05:21:38.834Z,100432.13
2022-09-21T05:24:07.114Z,100435.66
2022-09-21T05:26:35.684Z,100439.38
2022-09-21T05:29:04.724Z,100437.50
2022-09-21T05:31:41.245Z,100435.31
2022-09-21T05:34:36.778Z,100436.59
2022-09-21T05:37:11.438Z,100428.94
2022-09-21T05:39:40.169Z,100431.03
2022-09-21T05:42:10.619Z,100437.69
2022-09-21T05:44:39.614Z,100440.50
2022-09-21T05:47:24.344Z,100429.50
2022-09-21T05:50:05.975Z,100432.50
2022-09-21T05:52:42.435Z,100435.63
2022-09-21T05:55:25.765Z,100437.28
2022-09-21T05:58:03.092Z,100439.91
2022-09-21T06:00:42.294Z,100437.13
2022-09-21T06:03:29.443Z,100445.34
2022-09-21T06:05:59.935Z,100448.34
2022-09-21T06:08:28.064Z,100454.94
2022-09-21T06:10:57.423Z,100454.66
2022-09-21T06:13:26.644Z,100462.66
2022-09-21T06:15:54.749Z,100455.94
2022-09-21T06:18:22.863Z,100455.91
2022-09-21T06:20:51.256Z,100455.56
2022-09-21T06:23:20.860Z,100452.84
2022-09-21T06:25:57.525Z,100459.16
2022-09-21T06:28:27.982Z,100466.09
2022-09-21T06:30:57.678Z,100465.88
2022-09-21T06:33:26.154Z,100478.00
2022-09-21T06:35:56.006Z,100473.25
2022-09-21T06:38:26.613Z,100476.50
2022-09-21T06:40:55.203Z,100477.63
2022-09-21T06:43:23.734Z,100477.94
2022-09-21T06:45:55.953Z,100473.03
2022-09-21T06:48:24.663Z,100485.94
2022-09-21T06:50:53.069Z,100470.72
2022-09-21T06:53:21.205Z,100464.81
2022-09-21T06:55:50.784Z,100473.00
2022-09-21T06:58:19.316Z,100467.66
2022-09-21T07:00:47.656Z,100464.28
2022-09-21T07:03:15.942Z,100470.38
2022-09-21T07:05:46.826Z,100463.38
2022-09-21T07:11:04.688Z,100476.69
2022-09-21T07:13:33.147Z,100466.44
2022-09-21T07:16:06.049Z,100469.38
2022-09-21T07:18:42.695Z,100479.19
2022-09-21T07:21:13.305Z,100486.28
2022-09-21T07:23:41.486Z,100479.59
2022-09-21T07:26:14.198Z,100485.16
2022-09-21T07:28:42.587Z,100491.97
2022-09-21T07:31:13.993Z,100482.41
2022-09-21T07:33:42.910Z,100480.41
2022-09-21T07:36:13.306Z,100487.13
2022-09-21T07:38:43.172Z,100486.53
2022-09-21T07:41:14.017Z,100482.81
2022-09-21T07:43:42.455Z,100482.31
2022-09-21T07:46:12.757Z,100484.59
2022-09-21T07:48:40.983Z,100486.06
2022-09-21T07:51:11.328Z,100489.38
2022-09-21T07:53:41.726Z,100484.63
2022-09-21T07:56:11.907Z,100478.63
2022-09-21T07:58:59.648Z,100474.16
2022-09-21T08:01:29.020Z,100472.50
2022-09-21T08:03:58.704Z,100477.56
2022-09-21T08:06:29.454Z,100473.53
2022-09-21T08:08:58.271Z,100468.19
2022-09-21T08:11:27.997Z,100465.59
2022-09-21T08:13:59.336Z,100480.63
2022-09-21T08:16:29.227Z,100464.75
2022-09-21T08:18:57.909Z,100468.75
2022-09-21T08:21:26.120Z,100471.84
2022-09-21T08:23:54.909Z,100479.47
2022-09-21T08:26:23.957Z,100475.38
2022-09-21T08:28:55.016Z,100481.16
2022-09-21T08:31:25.312Z,100470.75
2022-09-21T08:33:55.338Z,100476.97
2022-09-21T08:36:23.478Z,100482.75
2022-09-21T08:38:51.713Z,100481.03
2022-09-21T08:41:21.879Z,100477.69
2022-09-21T08:43:54.021Z,100480.31
2022-09-21T08:46:27.089Z,100485.38
2022-09-21T08:48:59.786Z,100482.00
2022-09-21T08:51:32.385Z,100481.63
2022-09-21T08:54:05.026Z,100478.44
2022-09-21T08:57:00.703Z,100473.97
2022-09-21T08:59:21.442Z,100474.94
2022-09-21T09:01:59.658Z,100465.72
2022-09-21T09:04:41.586Z,100468.03
2022-09-21T09:07:42.266Z,100458.53
2022-09-21T09:10:23.854Z,100457.81
2022-09-21T09:13:03.270Z,100449.81
2022-09-21T09:15:47.147Z,100450.78
2022-09-21T09:18:24.716Z,100442.81
2022-09-21T09:20:58.649Z,100455.56
2022-09-21T09:23:29.999Z,100443.06
2022-09-21T09:26:03.443Z,100441.63
2022-09-21T09:28:36.255Z,100439.06
2022-09-21T09:31:12.226Z,100438.78
2022-09-21T09:33:53.155Z,100439.00
2022-09-21T09:36:40.124Z,100445.53
2022-09-21T09:39:14.065Z,100445.06
2022-09-21T09:42:07.872Z,100437.22
2022-09-21T09:44:55.407Z,100442.56
2022-09-21T09:47:34.643Z,100438.31
2022-09-21T09:50:09.652Z,100435.94
2022-09-21T09:52:38.783Z,100427.00
2022-09-21T09:55:20.214Z,100415.63
2022-09-21T09:57:49.931Z,100424.69
2022-09-21T10:00:21.320Z,100420.63
2022-09-21T10:02:51.273Z,100418.50
2022-09-21T10:05:34.722Z,100421.03
2022-09-21T10:08:04.072Z,100419.41
2022-09-21T10:10:35.772Z,100423.19
2022-09-21T10:13:08.590Z,100423.88
2022-09-21T10:15:43.925Z,100419.53
2022-09-21T10:18:19.472Z,100415.59
2022-09-21T10:21:01.059Z,100418.97
2022-09-21T10:23:30.897Z,100423.13
2022-09-21T10:26:02.902Z,100416.94
2022-09-21T10:28:32.031Z,100415.41
2022-09-21T10:31:12.900Z,100414.69
2022-09-21T10:33:50.752Z,100416.63
2022-09-21T10:36:32.053Z,100408.09
2022-09-21T10:39:22.614Z,100408.44
2022-09-21T10:41:54.290Z,100410.53
2022-09-21T10:44:27.090Z,100409.72
2022-09-21T10:49:30.621Z,100405.03
2022-09-21T10:52:00.647Z,100404.28
2022-09-21T10:54:33.936Z,100407.25
2022-09-21T10:57:05.291Z,100400.72
2022-09-21T10:59:35.286Z,100403.06
2022-09-21T11:02:04.465Z,100401.09
2022-09-21T11:04:42.988Z,100394.88
2022-09-21T11:07:19.844Z,100407.94
2022-09-21T11:10:06.386Z,100407.38
2022-09-21T11:12:48.762Z,100403.88
2022-09-21T11:15:28.977Z,100403.38
2022-09-21T11:18:15.084Z,100400.59
2022-09-21T11:20:48.850Z,100394.38
2022-09-21T11:23:33.226Z,100390.81
2022-09-21T11:26:10.806Z,100389.22
2022-09-21T11:28:43.459Z,100390.72
2022-09-21T11:32:03.824Z,100376.69
2022-09-21T11:35:11.114Z,100383.84
2022-09-21T11:37:56.804Z,100385.84
2022-09-21T11:40:39.843Z,100389.22
2022-09-21T11:43:23.637Z,100401.50
2022-09-21T11:46:01.526Z,100402.56
2022-09-21T11:48:45.828Z,100410.53
2022-09-21T11:51:38.082Z,100419.72
2022-09-21T11:54:39.176Z,100423.22
2022-09-21T11:57:18.867Z,100435.38
2022-09-21T12:00:05.257Z,100433.75
2022-09-21T12:03:15.440Z,100454.59
2022-09-21T12:05:52.054Z,100447.19
2022-09-21T12:08:42.845Z,100457.75
2022-09-21T12:11:18.130Z,100453.72
2022-09-21T12:13:56.150Z,100432.41
2022-09-21T12:16:33.883Z,100432.50
2022-09-21T12:19:10.797Z,100431.06
2022-09-21T12:21:44.346Z,100446.72
2022-09-21T12:24:18.096Z,100457.81
2022-09-21T12:26:50.524Z,100459.72
2022-09-21T12:29:25.650Z,100464.59
2022-09-21T12:32:03.460Z,100470.66
2022-09-21T12:34:40.269Z,100475.72
2022-09-21T12:37:13.438Z,100468.84
2022-09-21T12:39:47.753Z,100486.38
2022-09-21T12:42:31.737Z,100478.13
2022-09-21T12:45:06.325Z,100486.41
2022-09-21T12:47:46.553Z,100495.09
2022-09-21T12:50:22.585Z,100489.88
2022-09-21T12:52:52.501Z,100498.66
2022-09-21T12:55:35.219Z,100502.69
2022-09-21T12:58:16.381Z,100502.81
2022-09-21T13:00:55.654Z,100493.53
2022-09-21T13:03:32.366Z,100480.63
2022-09-21T13:06:25.717Z,100475.59
2022-09-21T13:08:54.483Z,100484.56
2022-09-21T13:11:24.637Z,100471.16
2022-09-21T13:13:57.395Z,100465.91
2022-09-21T13:16:29.188Z,100467.03
2022-09-21T13:19:01.597Z,100463.91
2022-09-21T13:21:32.228Z,100454.75
2022-09-21T13:24:02.391Z,100446.03
2022-09-21T13:26:35.816Z,100438.47
2022-09-21T13:29:07.943Z,100443.84
2022-09-21T13:31:57.639Z,100454.75
2022-09-21T13:34:36.846Z,100445.91
2022-09-21T13:37:30.229Z,100452.38
2022-09-21T13:40:43.455Z,100434.53
2022-09-21T13:43:19.545Z,100430.88
2022-09-21T13:45:58.259Z,100433.56
2022-09-21T13:48:30.646Z,100426.13
2022-09-21T13:51:02.145Z,100428.03
2022-09-21T13:53:40.248Z,100424.41
2022-09-21T13:56:11.847Z,100438.16
2022-09-21T13:58:46.149Z,100433.56
2022-09-21T14:01:45.243Z,100429.91
2022-09-21T14:04:21.119Z,100421.66
2022-09-21T14:06:51.977Z,100419.13
2022-09-21T14:09:26.247Z,100427.22
2022-09-21T14:11:59.201Z,100430.59
2022-09-21T14:14:32.072Z,100429.94
2022-09-21T14:17:01.234Z,100427.41
2022-09-21T14:20:09.845Z,100417.72
2022-09-21T14:22:48.401Z,100419.81
2022-09-21T14:25:29.498Z,100426.41
2022-09-21T14:28:06.307Z,100420.94
2022-09-21T14:30:38.093Z,100416.34
2022-09-21T14:33:19.040Z,100433.63
2022-09-21T14:35:48.968Z,100425.31
2022-09-21T14:38:24.197Z,100427.84
2022-09-21T14:40:56.097Z,100426.59
2022-09-21T14:43:29.549Z,100430.47
2022-09-21T14:46:19.233Z,100425.66
2022-09-21T14:48:58.711Z,100422.28
2022-09-21T14:51:38.403Z,100418.44
2022-09-21T14:54:35.688Z,100418.25
2022-09-21T14:57:21.866Z,100416.41
2022-09-21T15:00:06.997Z,100421.03
2022-09-21T15:02:37.576Z,100422.19
2022-09-21T15:05:19.830Z,100423.09
2022-09-21T15:08:24.852Z,100413.81
2022-09-21T15:11:04.257Z,100427.56
2022-09-21T15:13:51.797Z,100419.19
2022-09-21T15:16:27.692Z,100422.81
2022-09-21T15:19:12.096Z,100423.31
2022-09-21T15:21:43.945Z,100414.16
2022-09-21T15:24:20.475Z,100421.22
2022-09-21T15:26:52.432Z,100425.81
2022-09-21T15:29:25.981Z,100423.13
2022-09-21T15:31:55.200Z,100426.31
2022-09-21T15:34:24.590Z,100424.72
2022-09-21T15:36:53.925Z,100427.09
2022-09-21T15:39:31.296Z,100423.09
2022-09-21T15:42:20.168Z,100425.28
2022-09-21T15:44:50.757Z,100429.53
2022-09-21T15:47:22.946Z,100436.63
2022-09-21T15:49:52.204Z,100440.94
2022-09-21T15:52:27.012Z,100444.72
2022-09-21T15:54:59.848Z,100441.06
2022-09-21T15:57:39.043Z,100441.22
2022-09-21T16:00:20.054Z,100453.75
2022-09-21T16:03:05.431Z,100451.53
2022-09-21T16:05:43.405Z,100446.97
2022-09-21T16:08:30.926Z,100451.09
2022-09-21T16:11:23.213Z,100450.31
2022-09-21T16:14:21.207Z,100444.16
2022-09-21T16:17:25.415Z,100456.66
2022-09-21T16:20:21.266Z,100449.22
2022-09-21T16:22:52.477Z,100452.06
2022-09-21T16:25:30.218Z,100458.72
2022-09-21T16:28:01.031Z,100461.25
2022-09-21T16:30:48.904Z,100457.91
2022-09-21T16:33:41.158Z,100467.56
2022-09-21T16:36:49.446Z,100461.56
2022-09-21T16:39:21.373Z,100465.97
2022-09-21T16:41:56.604Z,100468.66
2022-09-21T16:44:26.726Z,100467.88
2022-09-21T16:46:59.525Z,100474.34
2022-09-21T16:49:33.708Z,100469.94
2022-09-21T16:52:02.289Z,100468.53
2022-09-21T16:54:31.228Z,100467.88
2022-09-21T16:57:02.924Z,100466.13
2022-09-21T16:59:33.210Z,100469.13
2022-09-21T17:02:04.321Z,100472.47
2022-09-21T17:04:34.309Z,100476.72
2022-09-21T17:07:05.073Z,100473.88
2022-09-21T17:09:35.585Z,100484.75
2022-09-21T17:12:06.292Z,100491.88
2022-09-21T17:14:36.306Z,100490.59
2022-09-21T17:17:08.960Z,100500.44
2022-09-21T17:19:37.314Z,100494.41
2022-09-21T17:22:07.149Z,100494.25
2022-09-21T17:24:50.179Z,100498.22
2022-09-21T17:27:21.253Z,100495.84
2022-09-21T17:29:50.459Z,100497.44
2022-09-21T17:32:21.916Z,100504.69
2022-09-21T17:34:56.442Z,100497.56
2022-09-21T17:37:25.402Z,100505.97
2022-09-21T17:39:54.412Z,100507.22
2022-09-21T17:42:26.003Z,100516.59
2022-09-21T17:45:13.005Z,100505.31
2022-09-21T17:47:43.652Z,100501.38
2022-09-21T17:50:26.278Z,100510.56
2022-09-21T17:53:12.999Z,100510.56
2022-09-21T17:55:46.469Z,100506.78
2022-09-21T17:58:40.655Z,100504.88
2022-09-21T18:01:15.878Z,100504.72
2022-09-21T18:03:46.016Z,100500.13
2022-09-21T18:06:15.131Z,100513.13
2022-09-21T18:08:43.822Z,100515.31
2022-09-21T18:11:36.357Z,100513.13
2022-09-21T18:14:13.199Z,100525.44
2022-09-21T18:16:51.818Z,100517.41
2022-09-21T18:19:35.499Z,100508.69
2022-09-21T18:22:15.069Z,100508.84
2022-09-21T18:24:44.495Z,100510.13
2022-09-21T18:27:13.282Z,100514.84
2022-09-21T18:29:42.236Z,100511.22
2022-09-21T18:32:41.931Z,100515.94
2022-09-21T18:35:22.722Z,100513.25
2022-09-21T18:38:05.423Z,100509.00
2022-09-21T18:40:41.702Z,100513.41
2022-09-21T18:43:26.497Z,100516.75
2022-09-21T18:46:01.880Z,100514.38
2022-09-21T18:48:48.555Z,100516.56
2022-09-21T18:51:25.217Z,100512.00
2022-09-21T18:53:56.171Z,100510.41
2022-09-21T18:56:25.631Z,100505.03
2022-09-21T18:58:54.595Z,100499.66
2022-09-21T19:01:23.889Z,100502.66
2022-09-21T19:03:52.842Z,100491.91
2022-09-21T19:06:39.555Z,100503.44
2022-09-21T19:09:22.596Z,100492.22
2022-09-21T19:11:58.515Z,100489.22
2022-09-21T19:14:36.623Z,100492.38
2022-09-21T19:17:17.758Z,100482.09
2022-09-21T19:19:58.177Z,100486.38
2022-09-21T19:22:37.381Z,100481.31
2022-09-21T19:25:13.751Z,100481.47
2022-09-21T19:27:47.917Z,100488.44
2022-09-21T19:30:18.579Z,100484.34
2022-09-21T19:32:48.801Z,100479.44
2022-09-21T19:35:21.030Z,100480.38
2022-09-21T19:37:52.629Z,100485.75
2022-09-21T19:40:23.068Z,100494.78
2022-09-21T19:43:10.805Z,100493.19
2022-09-21T19:45:51.001Z,100490.66
2022-09-21T19:48:23.903Z,100493.50
2022-09-21T19:50:55.109Z,100487.63
2022-09-21T19:53:43.327Z,100484.31
2022-09-21T19:56:31.769Z,100489.69
2022-09-21T19:59:18.214Z,100495.09
2022-09-21T20:01:52.653Z,100488.91
2022-09-21T20:04:28.242Z,100495.25
2022-09-21T20:07:03.642Z,100491.13
2022-09-21T20:09:39.996Z,100496.34
2022-09-21T20:12:18.681Z,100490.00
2022-09-21T20:14:51.587Z,100496.03
2022-09-21T20:17:25.815Z,100498.41
2022-09-21T20:20:00.248Z,100493.19
2022-09-21T20:22:34.938Z,100499.22
2022-09-21T20:25:12.867Z,100490.31
2022-09-21T20:27:43.587Z,100496.50
2022-09-21T20:30:14.573Z,100505.03
2022-09-21T20:32:45.193Z,100493.19
2022-09-21T20:35:17.175Z,100484.34
2022-09-21T20:37:45.378Z,100481.19
2022-09-21T20:40:16.245Z,100488.28
2022-09-21T20:42:44.644Z,100494.91
2022-09-21T20:45:14.320Z,100497.13
2022-09-21T20:47:42.769Z,100494.13
2022-09-21T20:50:12.915Z,100494.94
2022-09-21T20:52:42.357Z,100497.13
2022-09-21T20:55:12.530Z,100496.66
2022-09-21T20:57:42.355Z,100496.50
2022-09-21T21:00:13.028Z,100499.81
2022-09-21T21:02:41.922Z,100494.63
2022-09-21T21:05:11.494Z,100493.16
2022-09-21T21:07:42.560Z,100496.97
2022-09-21T21:10:13.342Z,100497.28
2022-09-21T21:12:43.283Z,100479.75
2022-09-21T21:15:12.672Z,100492.69
2022-09-21T21:17:41.253Z,100494.59
2022-09-21T21:20:10.961Z,100488.25
2022-09-21T21:22:39.065Z,100490.94
2022-09-21T21:25:07.819Z,100482.41
2022-09-21T21:27:36.240Z,100488.75
2022-09-21T21:30:08.154Z,100488.88
2022-09-21T21:32:36.753Z,100483.19
2022-09-21T21:35:05.796Z,100483.38
2022-09-21T21:37:33.887Z,100487.16
2022-09-21T21:40:03.452Z,100482.88
2022-09-21T21:42:31.816Z,100475.72
2022-09-21T21:45:00.008Z,100478.00
2022-09-21T21:47:44.858Z,100472.75
2022-09-21T21:50:14.023Z,100480.47
2022-09-21T21:52:44.366Z,100473.50
2022-09-21T21:55:14.754Z,100461.34
2022-09-21T21:57:42.892Z,100477.16
2022-09-21T22:00:12.537Z,100459.44
2022-09-21T22:02:42.130Z,100464.03
2022-09-21T22:05:10.723Z,100462.59
2022-09-21T22:07:40.437Z,100464.97
2022-09-21T22:10:10.142Z,100460.53
2022-09-21T22:12:38.338Z,100452.16
2022-09-21T22:15:07.538Z,100452.31
2022-09-21T22:17:35.667Z,100444.91
2022-09-21T22:20:05.830Z,100453.09
2022-09-21T22:22:33.983Z,100449.94
2022-09-21T22:25:02.242Z,100449.91
2022-09-21T22:27:30.983Z,100454.50
2022-09-21T22:29:59.264Z,100442.00
2022-09-21T22:32:27.380Z,100450.38
2022-09-21T22:34:55.460Z,100437.41
2022-09-21T22:37:25.482Z,100444.81
2022-09-21T22:39:53.939Z,100435.03
2022-09-21T22:42:22.058Z,100442.56
2022-09-21T22:44:50.134Z,100435.44
2022-09-21T22:47:18.924Z,100431.16
2022-09-21T22:49:47.095Z,100424.38
2022-09-21T22:52:15.225Z,100438.41
2022-09-21T22:54:44.769Z,100429.41
2022-09-21T22:57:12.858Z,100434.78
2022-09-21T22:59:42.275Z,100429.41
2022-09-21T23:02:10.543Z,100434.78
2022-09-21T23:04:39.002Z,100425.28
2022-09-21T23:07:07.108Z,100423.22
2022-09-21T23:09:35.392Z,100422.09
2022-09-21T23:12:05.461Z,100428.09
2022-09-21T23:14:33.584Z,100433.09
2022-09-21T23:17:01.863Z,100426.66
2022-09-21T23:19:29.943Z,100428.84
2022-09-21T23:21:58.208Z,100430.56
2022-09-21T23:24:26.361Z,100433.41
2022-09-21T23:26:54.760Z,100431.91
2022-09-21T23:29:24.291Z,100417.88
2022-09-21T23:31:52.412Z,100417.66
2022-09-21T23:34:20.538Z,100404.75
2022-09-21T23:36:48.793Z,100417.56
2022-09-21T23:39:17.432Z,100407.44
2022-09-21T23:41:45.890Z,100415.28
2022-09-21T23:44:14.383Z,100403.47
2022-09-21T23:46:44.021Z,100410.13
2022-09-21T23:49:12.560Z,100406.34
2022-09-21T23:51:41.460Z,100405.84
2022-09-21T23:54:09.946Z,100391.38
2022-09-21T23:56:38.144Z,100404.25
2022-09-21T23:59:06.656Z,100400.03
